AVA11 MPTO-MROC
Flight info
| Callsign | AVA11 |
|---|---|
| Flight time | 0h 49m |
| Altitude | 34000 |
| Route | PUDOS DCT ISEBA CUARE4I |
| Aircraft | A320/M-SDE3FGHIRWY/LB1 |
Departure
| Time | 2026-05-03 21:30 |
|---|---|
| Airport | Tocumen International Airport (MPTO) |
Arrival
| Time | 2026-05-03 22:19 |
|---|---|
| Airport | Juan Santamaría International Airport (MROC) |
| Time | Latitude | Longitude | Altitude | Speed | Heading |
|---|---|---|---|---|---|
| 2026-05-03 21:04 | 9.06754 | -79.38486 | 30 ft | 0 kts | 318° |
| 2026-05-03 21:22 | 9.06736 | -79.38469 | 30 ft | 4 kts | 316° |
| 2026-05-03 21:22 | 9.06716 | -79.38451 | 30 ft | 4 kts | 325° |
| 2026-05-03 21:22 | 9.06695 | -79.38442 | 30 ft | 4 kts | 19° |
| 2026-05-03 21:22 | 9.06691 | -79.38443 | 30 ft | 0 kts | 28° |
| 2026-05-03 21:25 | 9.06692 | -79.38442 | 30 ft | 3 kts | 28° |
| 2026-05-03 21:26 | 9.06752 | -79.38410 | 30 ft | 13 kts | 27° |
| 2026-05-03 21:26 | 9.06852 | -79.38373 | 30 ft | 15 kts | 356° |
| 2026-05-03 21:26 | 9.06904 | -79.38432 | 30 ft | 9 kts | 296° |
| 2026-05-03 21:26 | 9.06939 | -79.38463 | 30 ft | 5 kts | 341° |
| 2026-05-03 21:27 | 9.06979 | -79.38456 | 30 ft | 15 kts | 24° |
| 2026-05-03 21:27 | 9.07096 | -79.38389 | 30 ft | 19 kts | 23° |
| 2026-05-03 21:27 | 9.07155 | -79.38413 | 31 ft | 7 kts | 287° |
| 2026-05-03 21:27 | 9.07212 | -79.38511 | 30 ft | 19 kts | 302° |
| 2026-05-03 21:28 | 9.07258 | -79.38604 | 36 ft | 11 kts | 285° |
| 2026-05-03 21:28 | 9.07266 | -79.38637 | 39 ft | 0 kts | 283° |
| 2026-05-03 21:28 | 9.07269 | -79.38653 | 41 ft | 8 kts | 283° |
| 2026-05-03 21:28 | 9.07303 | -79.38714 | 45 ft | 6 kts | 328° |
| 2026-05-03 21:29 | 9.07317 | -79.38711 | 47 ft | 4 kts | 37° |
| 2026-05-03 21:29 | 9.07504 | -79.38596 | 49 ft | 68 kts | 31° |
| 2026-05-03 21:29 | 9.08104 | -79.38237 | 46 ft | 130 kts | 30° |
| 2026-05-03 21:29 | 9.09010 | -79.37685 | 138 ft | 170 kts | 31° |
| 2026-05-03 21:30 | 9.10046 | -79.37028 | 835 ft | 176 kts | 31° |
| 2026-05-03 21:30 | 9.11151 | -79.36562 | 1730 ft | 173 kts | 5° |
| 2026-05-03 21:30 | 9.12296 | -79.36744 | 2425 ft | 171 kts | 331° |
| 2026-05-03 21:30 | 9.13177 | -79.37617 | 2757 ft | 192 kts | 296° |
| 2026-05-03 21:31 | 9.13399 | -79.39017 | 3042 ft | 217 kts | 268° |
| 2026-05-03 21:31 | 9.13336 | -79.40612 | 3430 ft | 238 kts | 268° |
| 2026-05-03 21:31 | 9.13276 | -79.42351 | 3939 ft | 257 kts | 269° |
| 2026-05-03 21:31 | 9.13219 | -79.44239 | 4549 ft | 275 kts | 269° |
| 2026-05-03 21:32 | 9.13161 | -79.46183 | 5428 ft | 277 kts | 269° |
| 2026-05-03 21:32 | 9.13111 | -79.48151 | 6269 ft | 283 kts | 270° |
| 2026-05-03 21:32 | 9.13067 | -79.50146 | 7089 ft | 285 kts | 269° |
| 2026-05-03 21:32 | 9.13017 | -79.52174 | 7847 ft | 293 kts | 270° |
| 2026-05-03 21:33 | 9.12964 | -79.54245 | 8659 ft | 296 kts | 269° |
| 2026-05-03 21:33 | 9.12894 | -79.56349 | 9427 ft | 300 kts | 269° |
| 2026-05-03 21:33 | 9.12818 | -79.58487 | 10164 ft | 308 kts | 268° |
| 2026-05-03 21:33 | 9.12750 | -79.60732 | 10389 ft | 332 kts | 269° |
| 2026-05-03 21:34 | 9.12685 | -79.63116 | 10773 ft | 345 kts | 269° |
| 2026-05-03 21:34 | 9.12614 | -79.65558 | 11394 ft | 352 kts | 268° |
| 2026-05-03 21:34 | 9.12535 | -79.68049 | 12132 ft | 355 kts | 268° |
| 2026-05-03 21:34 | 9.12452 | -79.70581 | 12863 ft | 362 kts | 268° |
| 2026-05-03 21:35 | 9.12373 | -79.73133 | 13563 ft | 364 kts | 268° |
| 2026-05-03 21:35 | 9.12303 | -79.75705 | 14191 ft | 368 kts | 268° |
| 2026-05-03 21:35 | 9.12236 | -79.78310 | 14813 ft | 374 kts | 268° |
| 2026-05-03 21:35 | 9.12157 | -79.80955 | 15489 ft | 378 kts | 267° |
| 2026-05-03 21:36 | 9.12078 | -79.83631 | 16132 ft | 383 kts | 267° |
| 2026-05-03 21:36 | 9.12001 | -79.86294 | 16738 ft | 385 kts | 267° |
| 2026-05-03 21:36 | 9.11928 | -79.89007 | 17290 ft | 388 kts | 267° |
| 2026-05-03 21:36 | 9.11855 | -79.91749 | 17821 ft | 392 kts | 267° |
| 2026-05-03 21:37 | 9.11781 | -79.94510 | 18372 ft | 393 kts | 267° |
| 2026-05-03 21:37 | 9.11712 | -79.97300 | 18898 ft | 396 kts | 267° |
| 2026-05-03 21:37 | 9.11630 | -80.00097 | 19405 ft | 398 kts | 266° |
| 2026-05-03 21:37 | 9.11540 | -80.02923 | 19921 ft | 404 kts | 267° |
| 2026-05-03 21:38 | 9.11455 | -80.05769 | 20490 ft | 405 kts | 266° |
| 2026-05-03 21:38 | 9.11364 | -80.08621 | 21014 ft | 406 kts | 266° |
| 2026-05-03 21:38 | 9.11276 | -80.11480 | 21515 ft | 409 kts | 266° |
| 2026-05-03 21:38 | 9.11191 | -80.14364 | 22003 ft | 411 kts | 266° |
| 2026-05-03 21:39 | 9.11108 | -80.17266 | 22482 ft | 413 kts | 266° |
| 2026-05-03 21:39 | 9.11022 | -80.20176 | 22942 ft | 415 kts | 266° |
| 2026-05-03 21:39 | 9.10934 | -80.23103 | 23383 ft | 418 kts | 266° |
| 2026-05-03 21:39 | 9.10844 | -80.26046 | 23819 ft | 420 kts | 266° |
| 2026-05-03 21:40 | 9.10752 | -80.29005 | 24222 ft | 421 kts | 266° |
| 2026-05-03 21:40 | 9.10660 | -80.31976 | 24602 ft | 424 kts | 266° |
| 2026-05-03 21:40 | 9.10570 | -80.34969 | 24976 ft | 426 kts | 266° |
| 2026-05-03 21:40 | 9.10479 | -80.37974 | 25334 ft | 429 kts | 266° |
| 2026-05-03 21:41 | 9.10389 | -80.40997 | 25681 ft | 431 kts | 266° |
| 2026-05-03 21:41 | 9.10297 | -80.44032 | 26021 ft | 433 kts | 266° |
| 2026-05-03 21:41 | 9.10205 | -80.47090 | 26349 ft | 436 kts | 266° |
| 2026-05-03 21:41 | 9.10110 | -80.50160 | 26663 ft | 438 kts | 266° |
| 2026-05-03 21:42 | 9.10015 | -80.53247 | 26986 ft | 440 kts | 266° |
| 2026-05-03 21:42 | 9.09918 | -80.56352 | 27293 ft | 442 kts | 266° |
| 2026-05-03 21:42 | 9.09820 | -80.59469 | 27592 ft | 444 kts | 267° |
| 2026-05-03 21:42 | 9.09723 | -80.62597 | 27875 ft | 446 kts | 267° |
| 2026-05-03 21:43 | 9.09627 | -80.65701 | 28153 ft | 448 kts | 267° |
| 2026-05-03 21:43 | 9.09529 | -80.68856 | 28427 ft | 450 kts | 267° |
| 2026-05-03 21:43 | 9.09431 | -80.72032 | 28705 ft | 452 kts | 267° |
| 2026-05-03 21:43 | 9.09332 | -80.75221 | 28970 ft | 454 kts | 267° |
| 2026-05-03 21:44 | 9.09233 | -80.78424 | 29221 ft | 456 kts | 267° |
| 2026-05-03 21:44 | 9.09132 | -80.81638 | 29486 ft | 458 kts | 267° |
| 2026-05-03 21:44 | 9.09028 | -80.84866 | 29732 ft | 460 kts | 267° |
| 2026-05-03 21:44 | 9.08924 | -80.88107 | 29973 ft | 462 kts | 268° |
| 2026-05-03 21:45 | 9.08820 | -80.91361 | 30206 ft | 464 kts | 268° |
| 2026-05-03 21:45 | 9.08716 | -80.94624 | 30430 ft | 465 kts | 268° |
| 2026-05-03 21:45 | 9.08613 | -80.97906 | 30653 ft | 467 kts | 268° |
| 2026-05-03 21:45 | 9.08509 | -81.01194 | 30875 ft | 469 kts | 268° |
| 2026-05-03 21:46 | 9.08566 | -81.04496 | 31087 ft | 470 kts | 275° |
| 2026-05-03 21:46 | 9.09127 | -81.07753 | 31291 ft | 472 kts | 284° |
| 2026-05-03 21:46 | 9.09956 | -81.10965 | 31580 ft | 471 kts | 284° |
| 2026-05-03 21:46 | 9.10780 | -81.14172 | 31892 ft | 470 kts | 284° |
| 2026-05-03 21:47 | 9.11592 | -81.17370 | 32198 ft | 469 kts | 284° |
| 2026-05-03 21:47 | 9.12396 | -81.20564 | 32513 ft | 468 kts | 284° |
| 2026-05-03 21:47 | 9.13198 | -81.23747 | 32826 ft | 466 kts | 284° |
| 2026-05-03 21:47 | 9.13998 | -81.26922 | 33136 ft | 465 kts | 284° |
| 2026-05-03 21:48 | 9.14797 | -81.30092 | 33441 ft | 464 kts | 284° |
| 2026-05-03 21:48 | 9.15596 | -81.33248 | 33734 ft | 463 kts | 284° |
| 2026-05-03 21:48 | 9.16386 | -81.36364 | 33890 ft | 462 kts | 284° |
| 2026-05-03 21:48 | 9.17175 | -81.39473 | 33915 ft | 452 kts | 284° |
| 2026-05-03 21:49 | 9.18722 | -81.45591 | 33915 ft | 447 kts | 284° |
| 2026-05-03 21:49 | 9.20264 | -81.51677 | 33926 ft | 446 kts | 284° |
| 2026-05-03 21:50 | 9.21799 | -81.57778 | 33925 ft | 446 kts | 284° |
| 2026-05-03 21:50 | 9.23326 | -81.63864 | 33924 ft | 446 kts | 284° |
| 2026-05-03 21:51 | 9.24851 | -81.69903 | 33922 ft | 446 kts | 284° |
| 2026-05-03 21:51 | 9.26398 | -81.76021 | 33925 ft | 445 kts | 284° |
| 2026-05-03 21:52 | 9.27921 | -81.82062 | 33925 ft | 446 kts | 284° |
| 2026-05-03 21:52 | 9.29446 | -81.88139 | 33923 ft | 445 kts | 284° |
| 2026-05-03 21:53 | 9.30971 | -81.94216 | 33924 ft | 445 kts | 284° |
| 2026-05-03 21:53 | 9.32496 | -82.00277 | 33926 ft | 445 kts | 284° |
| 2026-05-03 21:54 | 9.34018 | -82.06346 | 33926 ft | 445 kts | 284° |
| 2026-05-03 21:54 | 9.35538 | -82.12423 | 33926 ft | 445 kts | 284° |
| 2026-05-03 21:55 | 9.37063 | -82.18499 | 33927 ft | 445 kts | 284° |
| 2026-05-03 21:55 | 9.38586 | -82.24574 | 33924 ft | 445 kts | 284° |
| 2026-05-03 21:56 | 9.40106 | -82.30648 | 33923 ft | 445 kts | 284° |
| 2026-05-03 21:56 | 9.41608 | -82.36681 | 33923 ft | 445 kts | 284° |
| 2026-05-03 21:57 | 9.43121 | -82.42753 | 33925 ft | 445 kts | 284° |
| 2026-05-03 21:57 | 9.44640 | -82.48839 | 33925 ft | 445 kts | 284° |
| 2026-05-03 21:58 | 9.46160 | -82.54917 | 33854 ft | 446 kts | 284° |
| 2026-05-03 21:58 | 9.46923 | -82.57961 | 33599 ft | 443 kts | 284° |
| 2026-05-03 21:58 | 9.47678 | -82.60986 | 33349 ft | 441 kts | 284° |
| 2026-05-03 21:59 | 9.48426 | -82.63997 | 33052 ft | 438 kts | 284° |
| 2026-05-03 21:59 | 9.49164 | -82.66979 | 32511 ft | 436 kts | 284° |
| 2026-05-03 21:59 | 9.49900 | -82.69950 | 31960 ft | 433 kts | 283° |
| 2026-05-03 21:59 | 9.50632 | -82.72898 | 31429 ft | 431 kts | 283° |
| 2026-05-03 22:00 | 9.51362 | -82.75832 | 30900 ft | 428 kts | 284° |
| 2026-05-03 22:00 | 9.52078 | -82.78710 | 30385 ft | 425 kts | 283° |
| 2026-05-03 22:00 | 9.52799 | -82.81610 | 29864 ft | 423 kts | 283° |
| 2026-05-03 22:00 | 9.53515 | -82.84491 | 29362 ft | 420 kts | 283° |
| 2026-05-03 22:01 | 9.54225 | -82.87356 | 28854 ft | 417 kts | 283° |
| 2026-05-03 22:01 | 9.54859 | -82.90201 | 28375 ft | 414 kts | 281° |
| 2026-05-03 22:01 | 9.55425 | -82.93062 | 27897 ft | 411 kts | 280° |
| 2026-05-03 22:01 | 9.55946 | -82.95901 | 27432 ft | 407 kts | 279° |
| 2026-05-03 22:02 | 9.56449 | -82.98716 | 26973 ft | 404 kts | 279° |
| 2026-05-03 22:02 | 9.56952 | -83.01508 | 26521 ft | 401 kts | 279° |
| 2026-05-03 22:02 | 9.57461 | -83.04273 | 26073 ft | 398 kts | 279° |
| 2026-05-03 22:02 | 9.57973 | -83.06980 | 25627 ft | 394 kts | 279° |
| 2026-05-03 22:03 | 9.58498 | -83.09698 | 25172 ft | 391 kts | 280° |
| 2026-05-03 22:03 | 9.59023 | -83.12401 | 24708 ft | 387 kts | 279° |
| 2026-05-03 22:03 | 9.59544 | -83.15070 | 24238 ft | 387 kts | 279° |
| 2026-05-03 22:03 | 9.60066 | -83.17739 | 23744 ft | 385 kts | 279° |
| 2026-05-03 22:04 | 9.60583 | -83.20414 | 23247 ft | 390 kts | 280° |
| 2026-05-03 22:04 | 9.61106 | -83.23116 | 22763 ft | 390 kts | 280° |
| 2026-05-03 22:04 | 9.61618 | -83.25809 | 22263 ft | 389 kts | 279° |
| 2026-05-03 22:04 | 9.62128 | -83.28489 | 21754 ft | 387 kts | 279° |
| 2026-05-03 22:05 | 9.62633 | -83.31153 | 21315 ft | 384 kts | 279° |
| 2026-05-03 22:05 | 9.63138 | -83.33803 | 20831 ft | 382 kts | 279° |
| 2026-05-03 22:05 | 9.63642 | -83.36432 | 20358 ft | 380 kts | 279° |
| 2026-05-03 22:05 | 9.64146 | -83.39050 | 19897 ft | 377 kts | 279° |
| 2026-05-03 22:06 | 9.64643 | -83.41628 | 19439 ft | 375 kts | 279° |
| 2026-05-03 22:06 | 9.65138 | -83.44210 | 18989 ft | 372 kts | 279° |
| 2026-05-03 22:06 | 9.65628 | -83.46776 | 18617 ft | 368 kts | 279° |
| 2026-05-03 22:06 | 9.66116 | -83.49326 | 18033 ft | 370 kts | 279° |
| 2026-05-03 22:07 | 9.66604 | -83.51884 | 17598 ft | 368 kts | 279° |
| 2026-05-03 22:07 | 9.67088 | -83.54417 | 17163 ft | 365 kts | 279° |
| 2026-05-03 22:07 | 9.67569 | -83.56939 | 16731 ft | 363 kts | 279° |
| 2026-05-03 22:07 | 9.68043 | -83.59424 | 16311 ft | 356 kts | 280° |
| 2026-05-03 22:08 | 9.68510 | -83.61866 | 15889 ft | 348 kts | 280° |
| 2026-05-03 22:08 | 9.68966 | -83.64247 | 15492 ft | 341 kts | 280° |
| 2026-05-03 22:08 | 9.69411 | -83.66586 | 15095 ft | 335 kts | 280° |
| 2026-05-03 22:08 | 9.69843 | -83.68878 | 14707 ft | 328 kts | 280° |
| 2026-05-03 22:09 | 9.70260 | -83.71142 | 14319 ft | 324 kts | 280° |
| 2026-05-03 22:09 | 9.70688 | -83.73368 | 13951 ft | 319 kts | 280° |
| 2026-05-03 22:09 | 9.71109 | -83.75556 | 13567 ft | 313 kts | 280° |
| 2026-05-03 22:10 | 9.71920 | -83.79783 | 12843 ft | 299 kts | 280° |
| 2026-05-03 22:10 | 9.72305 | -83.81808 | 12484 ft | 295 kts | 280° |
| 2026-05-03 22:10 | 9.72873 | -83.83804 | 12119 ft | 296 kts | 294° |
| 2026-05-03 22:10 | 9.73892 | -83.85618 | 11786 ft | 298 kts | 308° |
| 2026-05-03 22:11 | 9.75328 | -83.87192 | 11438 ft | 308 kts | 317° |
| 2026-05-03 22:11 | 9.76879 | -83.88719 | 11074 ft | 309 kts | 316° |
| 2026-05-03 22:11 | 9.78418 | -83.90261 | 10731 ft | 311 kts | 315° |
| 2026-05-03 22:11 | 9.79956 | -83.91796 | 10381 ft | 308 kts | 316° |
| 2026-05-03 22:12 | 9.81452 | -83.93295 | 10023 ft | 305 kts | 316° |
| 2026-05-03 22:12 | 9.82924 | -83.94775 | 9689 ft | 290 kts | 316° |
| 2026-05-03 22:12 | 9.84321 | -83.96181 | 9366 ft | 276 kts | 316° |
| 2026-05-03 22:12 | 9.85656 | -83.97522 | 9059 ft | 264 kts | 316° |
| 2026-05-03 22:13 | 9.86930 | -83.98803 | 8764 ft | 253 kts | 315° |
| 2026-05-03 22:13 | 9.88161 | -84.00039 | 8490 ft | 244 kts | 316° |
| 2026-05-03 22:13 | 9.89368 | -84.01240 | 8189 ft | 239 kts | 316° |
| 2026-05-03 22:13 | 9.90445 | -84.02473 | 7943 ft | 228 kts | 304° |
| 2026-05-03 22:14 | 9.91006 | -84.03374 | 7676 ft | 227 kts | 303° |
| 2026-05-03 22:14 | 9.91830 | -84.04725 | 7314 ft | 222 kts | 303° |
| 2026-05-03 22:14 | 9.92623 | -84.06026 | 6970 ft | 213 kts | 303° |
| 2026-05-03 22:14 | 9.93389 | -84.07285 | 6594 ft | 206 kts | 303° |
| 2026-05-03 22:15 | 9.94132 | -84.08491 | 6253 ft | 196 kts | 307° |
| 2026-05-03 22:15 | 9.95050 | -84.09417 | 6043 ft | 179 kts | 327° |
| 2026-05-03 22:15 | 9.96121 | -84.09947 | 5820 ft | 166 kts | 345° |
| 2026-05-03 22:15 | 9.97217 | -84.10114 | 5615 ft | 155 kts | 1° |
| 2026-05-03 22:16 | 9.98271 | -84.10089 | 5423 ft | 151 kts | 356° |
| 2026-05-03 22:16 | 9.99290 | -84.10315 | 5220 ft | 150 kts | 340° |
| 2026-05-03 22:16 | 10.00209 | -84.10820 | 5011 ft | 151 kts | 324° |
| 2026-05-03 22:16 | 10.00954 | -84.11563 | 4810 ft | 151 kts | 308° |
| 2026-05-03 22:17 | 10.01473 | -84.12485 | 4603 ft | 151 kts | 292° |
| 2026-05-03 22:17 | 10.01722 | -84.13514 | 4407 ft | 151 kts | 276° |
| 2026-05-03 22:17 | 10.01683 | -84.14577 | 4200 ft | 152 kts | 260° |
| 2026-05-03 22:17 | 10.01387 | -84.15602 | 3972 ft | 151 kts | 250° |
| 2026-05-03 22:18 | 10.01012 | -84.16595 | 3816 ft | 150 kts | 249° |
| 2026-05-03 22:18 | 10.00619 | -84.17583 | 3630 ft | 152 kts | 250° |
| 2026-05-03 22:18 | 10.00215 | -84.18559 | 3396 ft | 149 kts | 247° |
| 2026-05-03 22:18 | 9.99881 | -84.19547 | 3156 ft | 147 kts | 252° |
| 2026-05-03 22:19 | 9.99536 | -84.20500 | 3037 ft | 134 kts | 249° |
| 2026-05-03 22:19 | 9.99264 | -84.21224 | 2998 ft | 87 kts | 249° |
| 2026-05-03 22:19 | 9.99107 | -84.21649 | 2977 ft | 28 kts | 250° |
| 2026-05-03 22:19 | 9.99127 | -84.21709 | 2974 ft | 4 kts | 343° |
| 2026-05-03 22:20 | 9.99170 | -84.21706 | 2970 ft | 8 kts | 35° |
| 2026-05-03 22:20 | 9.99188 | -84.21680 | 2971 ft | 3 kts | 64° |
| 2026-05-03 22:20 | 9.99199 | -84.21652 | 2972 ft | 2 kts | 69° |